Time;durP1;ratioP1;P1;durP2;ratioP2;P2;SDS_P1;SDS_P2;PMS_P1;PMS_P2;Temp;Humidity;BMP_temperature;BMP_pressure;BME280_temperature;BME280_humidity;BME280_pressure;Samples;Min_cycle;Max_cycle;Signal;HPM_P1;HPM_P2
2021/12/22 00:02:10;;;;;;;25.00;19.15;;;;;;;-141.48;100.00;69781.59;5199763;28;20018;-84
2021/12/22 00:04:45;;;;;;;19.52;17.88;;;;;;;-141.48;100.00;69781.59;5217423;28;20021;-85
2021/12/22 00:07:16;;;;;;;20.33;18.23;;;;;;;-141.48;100.00;69781.59;5199207;28;20403;-85
2021/12/22 00:09:46;;;;;;;20.00;18.25;;;;;;;-141.48;100.00;69781.59;5216834;28;20136;-84
2021/12/22 00:12:17;;;;;;;22.10;20.02;;;;;;;-141.48;100.00;69781.59;5216205;28;20496;-83
2021/12/22 00:14:47;;;;;;;19.35;17.73;;;;;;;-141.48;100.00;69781.59;5199443;28;20036;-84
2021/12/22 00:17:18;;;;;;;20.58;18.45;;;;;;;-141.48;100.00;69781.59;5216802;28;20033;-85
2021/12/22 00:19:48;;;;;;;20.17;18.35;;;;;;;-141.48;100.00;69781.59;5216975;28;20487;-84
2021/12/22 00:22:18;;;;;;;21.67;20.02;;;;;;;-141.48;100.00;69781.59;5216549;28;20029;-85
2021/12/22 00:24:49;;;;;;;19.15;17.55;;;;;;;-141.48;100.00;69781.59;5216123;28;20030;-84
2021/12/22 00:27:20;;;;;;;22.70;20.88;;;;;;;-141.48;100.00;69781.59;5216290;28;20029;-83
2021/12/22 00:29:52;;;;;;;23.38;20.95;;;;;;;-141.48;100.00;69781.59;5216020;28;20571;-84
2021/12/22 00:32:23;;;;;;;20.48;18.73;;;;;;;-141.48;100.00;69781.59;5215998;28;20079;-85
2021/12/22 00:34:55;;;;;;;20.17;18.40;;;;;;;-141.48;100.00;69781.59;5198111;28;20057;-84
2021/12/22 00:37:28;;;;;;;21.77;19.90;;;;;;;-141.48;100.00;69781.59;5216017;28;20105;-84
2021/12/22 00:39:59;;;;;;;22.38;20.27;;;;;;;-141.48;100.00;69781.59;5216026;28;20031;-84
2021/12/22 00:42:30;;;;;;;22.27;20.08;;;;;;;-141.48;100.00;69781.59;5216279;28;20021;-85
2021/12/22 00:45:00;;;;;;;19.95;18.35;;;;;;;-141.48;100.00;69781.59;5215562;28;20078;-84
2021/12/22 00:47:31;;;;;;;21.38;19.08;;;;;;;-141.48;100.00;69781.59;5215763;28;20044;-84
2021/12/22 00:50:04;;;;;;;22.00;20.00;;;;;;;-141.48;100.00;69781.59;5215630;28;20026;-84
2021/12/22 00:52:34;;;;;;;23.70;21.85;;;;;;;-141.48;100.00;69781.59;5198332;28;20040;-84
2021/12/22 00:55:05;;;;;;;22.50;20.42;;;;;;;-141.48;100.00;69781.59;5216209;28;20041;-84
2021/12/22 00:57:38;;;;;;;23.73;21.88;;;;;;;-141.48;100.00;69781.59;5198048;28;20091;-83
2021/12/22 01:00:09;;;;;;;20.92;19.20;;;;;;;-141.48;100.00;69781.59;5197431;28;20487;-85
2021/12/22 01:02:40;;;;;;;21.20;19.42;;;;;;;-141.48;100.00;69781.59;5215019;28;20099;-84
2021/12/22 01:05:16;;;;;;;24.85;22.73;;;;;;;-141.48;100.00;69781.59;5215207;28;20071;-84
2021/12/22 01:07:48;;;;;;;22.92;21.02;;;;;;;-141.48;100.00;69781.59;5213781;28;20022;-84
2021/12/22 01:10:25;;;;;;;20.73;19.02;;;;;;;-141.48;100.00;69781.59;5214899;28;20033;-84
2021/12/22 01:12:59;;;;;;;22.90;21.00;;;;;;;-141.48;100.00;69781.59;5215359;28;20029;-84
2021/12/22 01:15:30;;;;;;;23.17;20.88;;;;;;;-141.48;100.00;69781.59;5199797;28;20375;-84
2021/12/22 01:18:10;;;;;;;22.58;20.33;;;;;;;-141.48;100.00;69781.59;5202416;28;20033;-83
2021/12/22 01:23:39;;;;;;;23.40;21.27;;;;;;;-141.48;100.00;69781.59;5218964;28;20570;-84
2021/12/22 01:26:10;;;;;;;21.58;19.40;;;;;;;-141.48;100.00;69781.59;5221155;28;20049;-85
2021/12/22 01:28:42;;;;;;;21.48;19.73;;;;;;;-141.48;100.00;69781.59;5222805;28;20036;-84
2021/12/22 01:31:16;;;;;;;23.35;21.45;;;;;;;-141.48;100.00;69781.59;5221570;28;20017;-85
2021/12/22 01:33:46;;;;;;;21.58;19.73;;;;;;;-141.48;100.00;69781.59;5221980;28;20044;-84
2021/12/22 01:36:16;;;;;;;21.15;19.42;;;;;;;-141.48;100.00;69781.59;5222514;28;20029;-85
2021/12/22 01:38:48;;;;;;;24.50;21.92;;;;;;;-141.48;100.00;69781.59;5204786;28;20092;-85
2021/12/22 01:41:18;;;;;;;24.02;22.23;;;;;;;-141.48;100.00;69781.59;5218983;28;20375;-84
2021/12/22 01:43:49;;;;;;;21.77;19.88;;;;;;;-141.48;100.00;69781.59;5218879;28;20112;-83
2021/12/22 01:49:10;;;;;;;21.15;19.38;;;;;;;-141.48;100.00;69781.59;5219477;28;20037;-83
2021/12/22 01:52:03;;;;;;;20.50;17.67;;;;;;;-141.48;100.00;69781.59;5201466;28;20022;-84
2021/12/22 01:54:46;;;;;;;21.35;19.52;;;;;;;-141.48;100.00;69781.59;5218492;28;20051;-84
2021/12/22 01:57:18;;;;;;;24.95;22.98;;;;;;;-141.48;100.00;69781.59;5219159;28;20482;-83
2021/12/22 01:59:50;;;;;;;23.85;21.25;;;;;;;-141.48;100.00;69781.59;5218293;28;20030;-84
2021/12/22 02:02:20;;;;;;;29.10;20.88;;;;;;;-141.48;100.00;69781.59;5218862;28;20383;-84
2021/12/22 02:04:51;;;;;;;24.23;21.85;;;;;;;-141.48;100.00;69781.59;5218769;28;20026;-84
2021/12/22 02:07:21;;;;;;;20.00;18.50;;;;;;;-141.48;100.00;69781.59;5219182;28;20061;-85
2021/12/22 02:12:39;;;;;;;22.42;20.27;;;;;;;-141.48;100.00;69781.59;5219574;28;20097;-84
2021/12/22 02:15:10;;;;;;;21.45;19.25;;;;;;;-141.48;100.00;69781.59;5219190;28;20040;-84
2021/12/22 02:17:41;;;;;;;25.80;23.27;;;;;;;-141.48;100.00;69781.59;5219234;28;20022;-83
2021/12/22 02:20:12;;;;;;;24.52;22.17;;;;;;;-141.48;100.00;69781.59;5218662;28;20026;-84
2021/12/22 02:22:44;;;;;;;26.13;20.40;;;;;;;-141.48;100.00;69781.59;5218520;28;20487;-84
2021/12/22 02:25:19;;;;;;;21.65;19.60;;;;;;;-141.48;100.00;69781.59;5218322;28;20103;-83
2021/12/22 02:27:54;;;;;;;24.83;22.50;;;;;;;-141.48;100.00;69781.59;5218140;28;20078;-85
2021/12/22 02:30:27;;;;;;;22.23;20.27;;;;;;;-141.48;100.00;69781.59;5218338;28;20064;-82
2021/12/22 02:36:08;;;;;;;21.23;19.08;;;;;;;-141.48;100.00;69781.59;5217374;28;20068;-83
2021/12/22 02:38:41;;;;;;;23.20;21.38;;;;;;;-141.48;100.00;69781.59;5218630;28;20025;-84
2021/12/22 02:41:15;;;;;;;20.30;18.67;;;;;;;-141.48;100.00;69781.59;5200857;28;20025;-84
2021/12/22 02:43:52;;;;;;;24.58;22.50;;;;;;;-141.48;100.00;69781.59;5217431;28;20026;-84
2021/12/22 02:46:40;;;;;;;22.90;20.95;;;;;;;-141.48;100.00;69781.59;5217754;28;20049;-84
2021/12/22 02:49:11;;;;;;;23.50;21.45;;;;;;;-141.48;100.00;69781.59;5218655;28;20031;-83
2021/12/22 02:51:41;;;;;;;21.98;19.95;;;;;;;-141.48;100.00;69781.59;5216981;28;20505;-84
2021/12/22 02:54:20;;;;;;;19.73;18.02;;;;;;;-141.48;100.00;69781.59;5217226;28;20025;-84
2021/12/22 02:56:56;;;;;;;24.55;19.55;;;;;;;-141.48;100.00;69781.59;5199997;28;20022;-84
2021/12/22 03:02:19;;;;;;;20.23;18.30;;;;;;;-141.48;100.00;69781.59;5218413;28;20091;-83
2021/12/22 03:04:55;;;;;;;23.40;21.20;;;;;;;-141.48;100.00;69781.59;5200128;28;20272;-84
2021/12/22 03:07:29;;;;;;;20.70;18.92;;;;;;;-141.48;100.00;69781.59;5200998;28;20025;-84
2021/12/22 03:10:07;;;;;;;23.23;20.77;;;;;;;-141.48;100.00;69781.59;5218414;28;20029;-83
2021/12/22 03:12:39;;;;;;;23.48;21.25;;;;;;;-141.48;100.00;69781.59;5217729;28;20021;-83
2021/12/22 03:15:10;;;;;;;22.73;20.33;;;;;;;-141.48;100.00;69781.59;5218457;28;20036;-83
2021/12/22 03:17:41;;;;;;;21.73;20.15;;;;;;;-141.48;100.00;69781.59;5218320;28;20021;-83
2021/12/22 03:20:14;;;;;;;23.48;20.88;;;;;;;-141.48;100.00;69781.59;5218096;28;20089;-84
2021/12/22 03:22:46;;;;;;;18.33;16.98;;;;;;;-141.48;100.00;69781.59;5199631;28;20029;-83
2021/12/22 03:25:17;;;;;;;23.55;21.20;;;;;;;-141.48;100.00;69781.59;5199260;28;20029;-84
2021/12/22 03:27:51;;;;;;;25.13;23.23;;;;;;;-141.48;100.00;69781.59;5200702;23;20040;-65
2021/12/22 03:30:24;;;;;;;23.55;21.80;;;;;;;-141.48;100.00;69781.59;5175256;28;20025;-62
2021/12/22 03:32:55;;;;;;;20.42;18.33;;;;;;;-141.48;100.00;69781.59;5189105;28;20164;-62
2021/12/22 03:35:25;;;;;;;26.60;20.92;;;;;;;-141.48;100.00;69781.59;5188918;28;20553;-62
2021/12/22 03:37:58;;;;;;;26.10;23.77;;;;;;;-141.48;100.00;69781.59;5189192;28;20024;-63
2021/12/22 03:40:28;;;;;;;23.55;21.55;;;;;;;-141.48;100.00;69781.59;5205542;28;20029;-61
2021/12/22 03:42:59;;;;;;;21.55;19.90;;;;;;;-141.48;100.00;69781.59;5189256;28;20371;-63
2021/12/22 03:45:29;;;;;;;22.25;19.48;;;;;;;-141.48;100.00;69781.59;5206622;28;20482;-62
2021/12/22 03:48:00;;;;;;;22.77;20.90;;;;;;;-141.48;100.00;69781.59;5188683;28;20026;-63
2021/12/22 03:50:30;;;;;;;24.13;21.63;;;;;;;-141.48;100.00;69781.59;5188928;28;20037;-63
2021/12/22 03:53:01;;;;;;;21.52;19.55;;;;;;;-141.48;100.00;69781.59;5189313;28;20481;-67
2021/12/22 03:55:32;;;;;;;21.98;20.25;;;;;;;-141.48;100.00;69781.59;5188989;28;20079;-64
2021/12/22 03:58:02;;;;;;;23.33;20.92;;;;;;;-141.48;100.00;69781.59;5188810;28;20035;-61
2021/12/22 04:00:36;;;;;;;25.50;20.08;;;;;;;-141.48;100.00;69781.59;5188500;28;20090;-62
2021/12/22 04:03:11;;;;;;;20.92;19.52;;;;;;;-141.48;100.00;69781.59;5205096;28;20029;-61
2021/12/22 04:05:41;;;;;;;21.40;19.58;;;;;;;-141.48;100.00;69781.59;5188364;28;20064;-61
2021/12/22 04:08:15;;;;;;;22.60;20.45;;;;;;;-141.48;100.00;69781.59;5205168;28;20034;-64
2021/12/22 04:10:46;;;;;;;23.70;19.25;;;;;;;-141.48;100.00;69781.59;5188339;28;20060;-59
2021/12/22 04:13:20;;;;;;;26.02;21.17;;;;;;;-141.48;100.00;69781.59;5204673;28;20030;-61
2021/12/22 04:15:50;;;;;;;22.08;20.00;;;;;;;-141.48;100.00;69781.59;5188629;28;20040;-63
2021/12/22 04:18:21;;;;;;;20.63;19.23;;;;;;;-141.48;100.00;69781.59;5188524;28;20473;-62
2021/12/22 04:20:51;;;;;;;24.33;21.98;;;;;;;-141.48;100.00;69781.59;5188351;28;20028;-64
2021/12/22 04:23:22;;;;;;;27.65;21.85;;;;;;;-141.48;100.00;69781.59;5187718;28;20032;-63
2021/12/22 04:25:53;;;;;;;20.65;18.92;;;;;;;-141.48;100.00;69781.59;5188021;28;20470;-62
2021/12/22 04:28:23;;;;;;;21.00;19.30;;;;;;;-141.48;100.00;69781.59;5188200;28;20065;-63
2021/12/22 04:30:54;;;;;;;19.90;18.20;;;;;;;-141.48;100.00;69781.59;5188062;28;20030;-61
2021/12/22 04:33:24;;;;;;;22.25;20.42;;;;;;;-141.48;100.00;69781.59;5205605;28;20478;-63
2021/12/22 04:35:55;;;;;;;21.42;19.67;;;;;;;-141.48;100.00;69781.59;5188105;28;20110;-62
2021/12/22 04:38:27;;;;;;;22.42;20.63;;;;;;;-141.48;100.00;69781.59;5188040;28;20028;-63
2021/12/22 04:40:57;;;;;;;20.50;18.52;;;;;;;-141.48;100.00;69781.59;5187657;28;20029;-63
2021/12/22 04:43:28;;;;;;;21.55;19.55;;;;;;;-141.48;100.00;69781.59;5187720;28;20024;-62
2021/12/22 04:45:59;;;;;;;21.83;19.92;;;;;;;-141.48;100.00;69781.59;5187763;28;20033;-63
2021/12/22 04:48:31;;;;;;;20.80;19.15;;;;;;;-141.48;100.00;69781.59;5187961;28;20385;-63
2021/12/22 04:51:11;;;;;;;20.63;18.85;;;;;;;-141.48;100.00;69781.59;5187835;28;20025;-62
2021/12/22 04:53:52;;;;;;;20.23;18.70;;;;;;;-141.48;100.00;69781.59;5187537;28;20029;-62
2021/12/22 04:56:22;;;;;;;;;;;;;;;-141.48;100.00;69781.59;5188105;28;20045;-62
2021/12/22 04:58:53;;;;;;;24.85;19.55;;;;;;;-141.48;100.00;69781.59;5186973;28;19948;-62
2021/12/22 05:01:23;;;;;;;24.20;21.98;;;;;;;-141.48;100.00;69781.59;5205237;28;20025;-65
2021/12/22 05:03:56;;;;;;;21.73;19.52;;;;;;;-141.48;100.00;69781.59;5187576;28;20029;-64
2021/12/22 05:06:26;;;;;;;20.05;18.30;;;;;;;-141.48;100.00;69781.59;5187460;28;20017;-62
2021/12/22 05:08:57;;;;;;;19.58;18.00;;;;;;;-141.48;100.00;69781.59;5187386;28;20039;-62
2021/12/22 05:11:27;;;;;;;21.77;20.20;;;;;;;-141.48;100.00;69781.59;5205296;28;20026;-62
2021/12/22 05:13:58;;;;;;;17.17;15.60;;;;;;;-141.48;100.00;69781.59;5187265;28;20065;-63
2021/12/22 05:16:29;;;;;;;22.55;20.33;;;;;;;-141.48;100.00;69781.59;5187387;28;20021;-62
2021/12/22 05:19:10;;;;;;;18.55;16.75;;;;;;;-141.48;100.00;69781.59;5203669;28;20049;-63
2021/12/22 05:21:45;;;;;;;19.27;17.75;;;;;;;-141.48;100.00;69781.59;5186876;28;20045;-63
2021/12/22 05:24:15;;;;;;;20.15;18.42;;;;;;;-141.48;100.00;69781.59;5186953;28;20404;-63
2021/12/22 05:26:46;;;;;;;20.27;18.42;;;;;;;-141.48;100.00;69781.59;5186816;28;20021;-62
2021/12/22 05:29:16;;;;;;;18.00;16.25;;;;;;;-141.48;100.00;69781.59;5187009;28;20044;-62
2021/12/22 05:31:53;;;;;;;17.40;16.05;;;;;;;-141.48;100.00;69781.59;5204490;28;20021;-63
2021/12/22 05:34:23;;;;;;;21.77;18.35;;;;;;;-141.48;100.00;69781.59;5186640;28;20033;-63
2021/12/22 05:36:55;;;;;;;19.13;16.70;;;;;;;-141.48;100.00;69781.59;5186884;28;20029;-62
2021/12/22 05:39:25;;;;;;;23.45;21.20;;;;;;;-141.48;100.00;69781.59;5186689;28;20041;-62
2021/12/22 05:41:57;;;;;;;20.75;18.67;;;;;;;-141.48;100.00;69781.59;5186639;28;20500;-62
2021/12/22 05:44:28;;;;;;;20.75;18.77;;;;;;;-141.48;100.00;69781.59;5186733;28;20124;-62
2021/12/22 05:46:58;;;;;;;20.13;18.63;;;;;;;-141.48;100.00;69781.59;5186744;28;20113;-62
2021/12/22 05:49:29;;;;;;;22.25;20.45;;;;;;;-141.48;100.00;69781.59;5186864;28;20041;-62
2021/12/22 05:51:59;;;;;;;21.55;20.02;;;;;;;-141.48;100.00;69781.59;5186781;28;20026;-62
2021/12/22 05:54:30;;;;;;;21.55;19.75;;;;;;;-141.48;100.00;69781.59;5186418;28;20033;-62
2021/12/22 05:57:00;;;;;;;20.05;18.40;;;;;;;-141.48;100.00;69781.59;5186507;28;20461;-62
2021/12/22 05:59:31;;;;;;;18.10;16.63;;;;;;;-141.48;100.00;69781.59;5204345;28;20056;-62
2021/12/22 06:02:02;;;;;;;18.73;17.00;;;;;;;-141.48;100.00;69781.59;5186633;28;20026;-62
2021/12/22 06:04:32;;;;;;;18.83;17.38;;;;;;;-141.48;100.00;69781.59;5203258;28;20021;-62
2021/12/22 06:07:03;;;;;;;20.48;18.40;;;;;;;-141.48;100.00;69781.59;5186517;28;20030;-61
2021/12/22 06:09:34;;;;;;;19.63;17.88;;;;;;;-141.48;100.00;69781.59;5202802;28;20048;-62
2021/12/22 06:12:05;;;;;;;19.30;17.75;;;;;;;-141.48;100.00;69781.59;5190350;28;20083;-62
2021/12/22 06:14:35;;;;;;;22.30;18.67;;;;;;;-141.48;100.00;69781.59;5190311;28;20112;-63
2021/12/22 06:17:06;;;;;;;20.33;18.83;;;;;;;-141.48;100.00;69781.59;5190394;28;20041;-63
2021/12/22 06:19:37;;;;;;;19.05;16.98;;;;;;;-141.48;100.00;69781.59;5207858;28;20037;-63
2021/12/22 06:22:07;;;;;;;20.13;18.40;;;;;;;-141.48;100.00;69781.59;5190073;28;20409;-63
2021/12/22 06:24:38;;;;;;;19.33;17.55;;;;;;;-141.48;100.00;69781.59;5189988;28;20052;-63
2021/12/22 06:27:08;;;;;;;20.20;18.27;;;;;;;-141.48;100.00;69781.59;5189954;28;20032;-62
2021/12/22 06:29:39;;;;;;;17.42;15.93;;;;;;;-141.48;100.00;69781.59;5190054;28;20485;-62
2021/12/22 06:32:10;;;;;;;31.70;29.05;;;;;;;-141.48;100.00;69781.59;5190089;28;20025;-62
2021/12/22 06:34:40;;;;;;;21.13;19.17;;;;;;;-141.48;100.00;69781.59;5189784;28;20025;-62
2021/12/22 06:37:12;;;;;;;21.55;19.70;;;;;;;-141.48;100.00;69781.59;5189957;28;20032;-62
2021/12/22 06:39:43;;;;;;;19.88;18.15;;;;;;;-141.48;100.00;69781.59;5206345;28;20037;-63
2021/12/22 06:42:13;;;;;;;23.08;21.08;;;;;;;-141.48;100.00;69781.59;5189883;28;20025;-63
2021/12/22 06:44:44;;;;;;;24.13;22.02;;;;;;;-141.48;100.00;69781.59;5207166;28;20029;-63
2021/12/22 06:47:15;;;;;;;23.05;20.52;;;;;;;-141.48;100.00;69781.59;5189603;28;20021;-62
2021/12/22 06:49:45;;;;;;;21.73;19.88;;;;;;;-141.48;100.00;69781.59;5207466;28;20119;-62
2021/12/22 06:52:15;;;;;;;19.70;18.10;;;;;;;-141.48;100.00;69781.59;5189653;28;20398;-62
2021/12/22 06:54:46;;;;;;;19.70;18.10;;;;;;;-141.48;100.00;69781.59;5189617;28;20544;-63
2021/12/22 06:57:20;;;;;;;20.05;17.30;;;;;;;-141.48;100.00;69781.59;5189477;28;20027;-63
2021/12/22 06:59:50;;;;;;;17.83;16.00;;;;;;;-141.48;100.00;69781.59;5206152;28;20540;-63
2021/12/22 07:02:21;;;;;;;17.98;16.25;;;;;;;-141.48;100.00;69781.59;5189642;28;20037;-62
2021/12/22 07:04:52;;;;;;;19.02;17.08;;;;;;;-141.48;100.00;69781.59;5189343;28;20033;-63
2021/12/22 07:07:22;;;;;;;16.90;15.52;;;;;;;-141.48;100.00;69781.59;5204008;28;20028;-63
2021/12/22 07:09:53;;;;;;;19.38;17.75;;;;;;;-141.48;100.00;69781.59;5227188;28;20112;-63
2021/12/22 07:12:23;;;;;;;20.52;18.63;;;;;;;-141.48;100.00;69781.59;5209793;28;20416;-63
2021/12/22 07:14:54;;;;;;;17.17;15.57;;;;;;;-141.48;100.00;69781.59;5209617;28;20487;-63
2021/12/22 07:17:24;;;;;;;20.20;18.02;;;;;;;-141.48;100.00;69781.59;5209636;28;20024;-63
2021/12/22 07:19:55;;;;;;;19.25;16.13;;;;;;;-141.48;100.00;69781.59;5209601;28;20121;-61
2021/12/22 07:22:25;;;;;;;19.30;15.77;;;;;;;-141.48;100.00;69781.59;5208610;28;20021;-62
2021/12/22 07:24:56;;;;;;;16.15;14.80;;;;;;;-141.48;100.00;69781.59;5209153;28;20024;-62
2021/12/22 07:27:26;;;;;;;18.92;16.38;;;;;;;-141.48;100.00;69781.59;5209193;28;20017;-64
2021/12/22 07:29:57;;;;;;;17.98;16.63;;;;;;;-141.48;100.00;69781.59;5209572;28;20040;-62
2021/12/22 07:32:27;;;;;;;16.67;15.40;;;;;;;-141.48;100.00;69781.59;5209431;28;20224;-62
2021/12/22 07:35:17;;;;;;;19.30;17.50;;;;;;;-141.48;100.00;69781.59;5208803;28;20489;-63
2021/12/22 07:37:57;;;;;;;19.73;18.05;;;;;;;-141.48;100.00;69781.59;5209186;28;20106;-60
2021/12/22 07:40:28;;;;;;;18.20;16.90;;;;;;;-141.48;100.00;69781.59;5209120;28;20029;-62
2021/12/22 07:42:58;;;;;;;16.25;14.68;;;;;;;-141.48;100.00;69781.59;5226941;28;20501;-62
2021/12/22 07:45:29;;;;;;;19.00;17.42;;;;;;;-141.48;100.00;69781.59;5225286;28;20021;-62
2021/12/22 07:47:59;;;;;;;18.98;15.63;;;;;;;-141.48;100.00;69781.59;5208844;28;20025;-62
2021/12/22 07:50:30;;;;;;;18.98;17.35;;;;;;;-141.48;100.00;69781.59;5209007;28;20044;-62
2021/12/22 07:53:00;;;;;;;14.63;13.63;;;;;;;-141.48;100.00;69781.59;5208977;28;20084;-62
2021/12/22 07:55:31;;;;;;;18.45;16.92;;;;;;;-141.48;100.00;69781.59;5208536;28;20024;-62
2021/12/22 07:58:02;;;;;;;18.13;16.60;;;;;;;-141.48;100.00;69781.59;5208553;28;20025;-61
2021/12/22 08:00:34;;;;;;;19.20;17.48;;;;;;;-141.48;100.00;69781.59;5208542;28;20396;-62
2021/12/22 08:03:05;;;;;;;18.55;16.92;;;;;;;-141.48;100.00;69781.59;5208692;28;20040;-62
2021/12/22 08:05:35;;;;;;;14.93;13.75;;;;;;;-141.48;100.00;69781.59;5208517;28;20025;-62
2021/12/22 08:08:06;;;;;;;19.40;17.98;;;;;;;-141.48;100.00;69781.59;5208325;28;20063;-63
2021/12/22 08:10:37;;;;;;;18.67;16.98;;;;;;;-141.48;100.00;69781.59;5194096;28;20029;-63
2021/12/22 08:13:07;;;;;;;16.55;15.23;;;;;;;-141.48;100.00;69781.59;5204762;28;20025;-63
2021/12/22 08:15:38;;;;;;;18.63;16.95;;;;;;;-141.48;100.00;69781.59;5187795;28;20056;-63
2021/12/22 08:18:08;;;;;;;15.18;13.93;;;;;;;-141.48;100.00;69781.59;5188231;28;20017;-64
2021/12/22 08:20:39;;;;;;;17.70;16.52;;;;;;;-141.48;100.00;69781.59;5188310;28;20021;-63
2021/12/22 08:23:09;;;;;;;15.73;14.57;;;;;;;-141.48;100.00;69781.59;5205761;28;20026;-63
2021/12/22 08:25:40;;;;;;;20.35;18.52;;;;;;;-141.48;100.00;69781.59;5187852;28;20604;-63
2021/12/22 08:28:10;;;;;;;18.92;17.00;;;;;;;-141.48;100.00;69781.59;5203965;28;20059;-62
2021/12/22 08:30:42;;;;;;;20.52;18.23;;;;;;;-141.48;100.00;69781.59;5205507;28;20030;-62
2021/12/22 08:33:21;;;;;;;17.50;15.73;;;;;;;-141.48;100.00;69781.59;5187112;28;20021;-62
2021/12/22 08:38:56;;;;;;;15.77;14.52;;;;;;;-141.48;100.00;69781.59;5134575;28;20516;-62
2021/12/22 08:41:36;;;;;;;16.35;14.93;;;;;;;-141.48;100.00;69781.59;5203848;28;20025;-63
2021/12/22 08:44:09;;;;;;;17.03;15.47;;;;;;;-141.48;100.00;69781.59;5205081;28;20036;-62
2021/12/22 08:46:43;;;;;;;16.17;15.18;;;;;;;-141.48;100.00;69781.59;5203747;28;20124;-62
2021/12/22 08:49:14;;;;;;;19.85;17.73;;;;;;;-141.48;100.00;69781.59;5187329;28;20401;-63
2021/12/22 08:51:44;;;;;;;17.27;15.60;;;;;;;-141.48;100.00;69781.59;5187284;28;20175;-63
2021/12/22 08:54:16;;;;;;;15.90;14.40;;;;;;;-141.48;100.00;69781.59;5187101;28;20545;-63
2021/12/22 08:56:46;;;;;;;16.48;14.98;;;;;;;-141.48;100.00;69781.59;5187318;28;20024;-63
2021/12/22 08:59:17;;;;;;;18.95;17.45;;;;;;;-141.48;100.00;69781.59;5203568;28;20405;-63
2021/12/22 09:01:49;;;;;;;18.73;17.33;;;;;;;-141.48;100.00;69781.59;5203688;28;20025;-63
2021/12/22 09:04:20;;;;;;;17.17;15.23;;;;;;;-141.48;100.00;69781.59;5200784;28;20037;-62
2021/12/22 09:06:52;;;;;;;17.33;15.95;;;;;;;-141.48;100.00;69781.59;5186434;28;20045;-63
2021/12/22 09:09:23;;;;;;;17.75;16.02;;;;;;;-141.48;100.00;69781.59;5203141;28;20041;-63
2021/12/22 09:11:54;;;;;;;18.10;16.63;;;;;;;-141.48;100.00;69781.59;5186444;28;20167;-62
2021/12/22 09:14:25;;;;;;;18.95;17.33;;;;;;;-141.48;100.00;69781.59;5186699;28;20029;-63
2021/12/22 09:16:56;;;;;;;18.70;17.33;;;;;;;-141.48;100.00;69781.59;5187062;28;20018;-63
2021/12/22 09:19:27;;;;;;;17.35;15.85;;;;;;;-141.48;100.00;69781.59;5186743;28;20029;-63
2021/12/22 09:21:57;;;;;;;21.38;19.35;;;;;;;-141.48;100.00;69781.59;5186628;28;20022;-63
2021/12/22 09:24:28;;;;;;;20.20;18.50;;;;;;;-141.48;100.00;69781.59;5186046;28;20108;-62
2021/12/22 09:26:58;;;;;;;20.88;18.83;;;;;;;-141.48;100.00;69781.59;5206122;22;21082;-87
2021/12/22 09:29:29;;;;;;;23.83;17.85;;;;;;;-141.48;100.00;69781.59;5177659;28;20063;-86
2021/12/22 09:31:59;;;;;;;19.25;17.33;;;;;;;-141.48;100.00;69781.59;5192256;28;20032;-85
2021/12/22 09:34:30;;;;;;;18.17;16.73;;;;;;;-141.48;100.00;69781.59;5192402;28;20395;-86
2021/12/22 09:37:00;;;;;;;18.35;16.85;;;;;;;-141.48;100.00;69781.59;5192098;28;20026;-86
2021/12/22 09:39:31;;;;;;;19.10;17.38;;;;;;;-141.48;100.00;69781.59;5192115;28;20029;-87
2021/12/22 09:42:01;;;;;;;17.13;15.43;;;;;;;-141.48;100.00;69781.59;5192149;28;20025;-86
2021/12/22 09:44:37;;;;;;;17.70;16.10;;;;;;;-141.48;100.00;69781.59;5192078;28;20025;-86
2021/12/22 09:47:07;;;;;;;18.73;17.10;;;;;;;-141.48;100.00;69781.59;5196384;28;20013;-86
2021/12/22 09:52:19;;;;;;;13.88;13.00;;;;;;;-141.48;100.00;69781.59;5214060;28;20052;-88
2021/12/22 09:54:52;;;;;;;17.25;15.35;;;;;;;-141.48;100.00;69781.59;5196360;28;20021;-87
2021/12/22 09:57:24;;;;;;;18.45;16.65;;;;;;;-141.48;100.00;69781.59;5213893;28;20394;-85
2021/12/22 09:59:57;;;;;;;17.73;16.08;;;;;;;-141.48;100.00;69781.59;5195594;28;20021;-86
2021/12/22 10:02:29;;;;;;;19.83;16.60;;;;;;;-141.48;100.00;69781.59;5213624;28;20049;-87
2021/12/22 10:05:01;;;;;;;15.98;14.57;;;;;;;-141.48;100.00;69781.59;5214364;28;20083;-88
2021/12/22 10:07:37;;;;;;;17.48;15.80;;;;;;;-141.48;100.00;69781.59;5195379;28;20017;-86
2021/12/22 10:10:09;;;;;;;15.70;14.43;;;;;;;-141.48;100.00;69781.59;5196122;28;20034;-87
2021/12/22 10:12:40;;;;;;;15.00;14.00;;;;;;;-141.48;100.00;69781.59;5196414;28;20030;-87
2021/12/22 10:15:12;;;;;;;15.27;14.02;;;;;;;-141.48;100.00;69781.59;5212685;28;20025;-88
2021/12/22 10:17:44;;;;;;;14.88;13.52;;;;;;;-141.48;100.00;69781.59;5196035;28;20041;-87
2021/12/22 10:20:20;;;;;;;13.82;12.77;;;;;;;-141.48;100.00;69781.59;5214053;28;20021;-86
2021/12/22 10:22:51;;;;;;;13.65;12.65;;;;;;;-141.48;100.00;69781.59;5195964;28;20112;-86
2021/12/22 10:25:25;;;;;;;14.98;13.60;;;;;;;-141.48;100.00;69781.59;5213734;28;20083;-87
2021/12/22 10:28:04;;;;;;;13.50;10.77;;;;;;;-141.48;100.00;69781.59;5195183;28;20026;-87
2021/12/22 10:30:42;;;;;;;13.18;12.18;;;;;;;-141.48;100.00;69781.59;5213940;28;20030;-86
2021/12/22 10:33:17;;;;;;;16.95;15.27;;;;;;;-141.48;100.00;69781.59;5213348;28;20025;-86
2021/12/22 10:35:54;;;;;;;15.82;14.55;;;;;;;-141.48;100.00;69781.59;5213845;28;20040;-85
2021/12/22 10:38:27;;;;;;;12.43;11.48;;;;;;;-141.48;100.00;69781.59;5195805;28;20033;-87
2021/12/22 10:41:10;;;;;;;13.32;12.43;;;;;;;-141.48;100.00;69781.59;5212696;28;20029;-87
2021/12/22 10:43:43;;;;;;;17.38;14.18;;;;;;;-141.48;100.00;69781.59;5214804;28;20063;-87
2021/12/22 10:46:25;;;;;;;14.70;13.50;;;;;;;-141.48;100.00;69781.59;5195235;28;20029;-86
2021/12/22 10:49:17;;;;;;;13.15;12.05;;;;;;;-141.48;100.00;69781.59;5212277;28;20030;-86
2021/12/22 10:51:53;;;;;;;13.20;12.20;;;;;;;-141.48;100.00;69781.59;5195130;28;20052;-86
2021/12/22 10:54:38;;;;;;;14.15;13.07;;;;;;;-141.48;100.00;69781.59;5196209;28;20041;-85
2021/12/22 10:57:12;;;;;;;13.70;12.35;;;;;;;-141.48;100.00;69781.59;5194143;28;20022;-87
2021/12/22 10:59:45;;;;;;;12.75;11.70;;;;;;;-141.48;100.00;69781.59;5195305;28;20029;-86
2021/12/22 11:02:22;;;;;;;12.93;11.73;;;;;;;-141.48;100.00;69781.59;5213665;28;20021;-86
2021/12/22 11:04:53;;;;;;;13.35;12.55;;;;;;;-141.48;100.00;69781.59;5195295;28;20025;-87
2021/12/22 11:07:29;;;;;;;14.27;12.95;;;;;;;-141.48;100.00;69781.59;5213106;28;20048;-88
2021/12/22 11:09:59;;;;;;;14.55;13.38;;;;;;;-141.48;100.00;69781.59;5213028;28;20037;-87
2021/12/22 11:12:37;;;;;;;12.20;11.43;;;;;;;-141.48;100.00;69781.59;5195395;28;20021;-88
2021/12/22 11:15:26;;;;;;;13.82;12.43;;;;;;;-141.48;100.00;69781.59;5197525;28;20036;-88
2021/12/22 11:17:56;;;;;;;12.52;11.43;;;;;;;-141.48;100.00;69781.59;5196598;28;20014;-88
2021/12/22 11:20:27;;;;;;;11.98;11.05;;;;;;;-141.48;100.00;69781.59;5198462;28;20124;-86
2021/12/22 11:23:02;;;;;;;10.63;9.77;;;;;;;-141.48;100.00;69781.59;5199312;28;20025;-85
2021/12/22 11:25:33;;;;;;;12.75;11.15;;;;;;;-141.48;100.00;69781.59;5215101;28;20033;-87
2021/12/22 11:28:03;;;;;;;14.40;13.35;;;;;;;-141.48;100.00;69781.59;5212444;28;20017;-87
2021/12/22 11:30:35;;;;;;;13.00;12.20;;;;;;;-141.48;100.00;69781.59;5194851;28;20048;-85
2021/12/22 11:33:05;;;;;;;11.38;10.45;;;;;;;-141.48;100.00;69781.59;5213202;28;20057;-85
2021/12/22 11:35:41;;;;;;;10.80;10.05;;;;;;;-141.48;100.00;69781.59;5195905;28;20032;-85
2021/12/22 11:38:12;;;;;;;23.05;21.60;;;;;;;-141.48;100.00;69781.59;5196042;28;20032;-85